sensor_id;sensor_type;location;lat;lon;timestamp;temperature;humidity
37289;DHT22;23174;49.462;11.000;2022-09-20T00:01:46;12.50;99.90
37289;DHT22;23174;49.462;11.000;2022-09-20T00:03:49;12.50;99.90
37289;DHT22;23174;49.462;11.000;2022-09-20T00:05:50;12.40;99.90
37289;DHT22;23174;49.462;11.000;2022-09-20T00:07:50;12.30;99.90
37289;DHT22;23174;49.462;11.000;2022-09-20T00:09:51;12.40;99.90
37289;DHT22;23174;49.462;11.000;2022-09-20T00:11:51;12.40;99.90
37289;DHT22;23174;49.462;11.000;2022-09-20T00:13:53;12.50;99.90
37289;DHT22;23174;49.462;11.000;2022-09-20T00:15:55;12.50;99.90
37289;DHT22;23174;49.462;11.000;2022-09-20T00:17:56;12.50;99.90
37289;DHT22;23174;49.462;11.000;2022-09-20T00:19:56;12.50;99.90
37289;DHT22;23174;49.462;11.000;2022-09-20T00:21:57;12.50;99.90
37289;DHT22;23174;49.462;11.000;2022-09-20T00:23:58;12.50;99.90
37289;DHT22;23174;49.462;11.000;2022-09-20T00:26:00;12.40;99.90
37289;DHT22;23174;49.462;11.000;2022-09-20T00:28:01;12.50;99.90
37289;DHT22;23174;49.462;11.000;2022-09-20T00:30:02;12.40;99.90
37289;DHT22;23174;49.462;11.000;2022-09-20T00:32:03;12.50;99.90
37289;DHT22;23174;49.462;11.000;2022-09-20T00:34:04;12.40;99.90
37289;DHT22;23174;49.462;11.000;2022-09-20T00:36:23;12.40;99.90
37289;DHT22;23174;49.462;11.000;2022-09-20T00:38:24;12.50;99.90
37289;DHT22;23174;49.462;11.000;2022-09-20T00:40:25;12.30;99.90
37289;DHT22;23174;49.462;11.000;2022-09-20T00:42:30;12.30;99.90
37289;DHT22;23174;49.462;11.000;2022-09-20T00:47:06;12.30;99.90
37289;DHT22;23174;49.462;11.000;2022-09-20T00:49:19;12.30;99.90
37289;DHT22;23174;49.462;11.000;2022-09-20T00:51:26;12.20;99.90
37289;DHT22;23174;49.462;11.000;2022-09-20T00:53:34;12.20;99.90
37289;DHT22;23174;49.462;11.000;2022-09-20T00:55:42;12.20;99.90
37289;DHT22;23174;49.462;11.000;2022-09-20T00:57:45;12.20;99.90
37289;DHT22;23174;49.462;11.000;2022-09-20T00:59:47;12.30;99.90
37289;DHT22;23174;49.462;11.000;2022-09-20T01:01:52;12.20;99.90
37289;DHT22;23174;49.462;11.000;2022-09-20T01:03:56;12.20;99.90
37289;DHT22;23174;49.462;11.000;2022-09-20T01:06:00;12.10;99.90
37289;DHT22;23174;49.462;11.000;2022-09-20T01:08:03;12.10;99.90
37289;DHT22;23174;49.462;11.000;2022-09-20T01:10:03;12.10;99.90
37289;DHT22;23174;49.462;11.000;2022-09-20T01:12:12;12.10;99.90
37289;DHT22;23174;49.462;11.000;2022-09-20T01:14:13;12.20;99.90
37289;DHT22;23174;49.462;11.000;2022-09-20T01:16:15;12.20;99.90
37289;DHT22;23174;49.462;11.000;2022-09-20T01:18:19;12.20;99.90
37289;DHT22;23174;49.462;11.000;2022-09-20T01:20:35;12.20;99.90
37289;DHT22;23174;49.462;11.000;2022-09-20T01:25:17;12.30;99.90
37289;DHT22;23174;49.462;11.000;2022-09-20T01:27:46;12.20;99.90
37289;DHT22;23174;49.462;11.000;2022-09-20T01:29:54;12.20;99.90
37289;DHT22;23174;49.462;11.000;2022-09-20T01:31:58;12.20;99.90
37289;DHT22;23174;49.462;11.000;2022-09-20T01:34:06;12.30;99.90
37289;DHT22;23174;49.462;11.000;2022-09-20T01:36:13;12.40;99.90
37289;DHT22;23174;49.462;11.000;2022-09-20T01:38:26;12.30;99.90
37289;DHT22;23174;49.462;11.000;2022-09-20T01:40:39;12.30;99.90
37289;DHT22;23174;49.462;11.000;2022-09-20T01:43:20;12.40;99.90
37289;DHT22;23174;49.462;11.000;2022-09-20T01:45:31;12.30;99.90
37289;DHT22;23174;49.462;11.000;2022-09-20T01:47:40;12.40;99.90
37289;DHT22;23174;49.462;11.000;2022-09-20T01:52:30;12.60;99.90
37289;DHT22;23174;49.462;11.000;2022-09-20T02:13:22;12.70;99.90
37289;DHT22;23174;49.462;11.000;2022-09-20T02:16:01;12.70;99.90
37289;DHT22;23174;49.462;11.000;2022-09-20T02:33:05;12.50;99.90
37289;DHT22;23174;49.462;11.000;2022-09-20T02:47:08;12.30;99.90
37289;DHT22;23174;49.462;11.000;2022-09-20T02:51:48;12.20;99.90
37289;DHT22;23174;49.462;11.000;2022-09-20T02:54:26;12.20;99.90
37289;DHT22;23174;49.462;11.000;2022-09-20T02:56:33;12.20;99.90
37289;DHT22;23174;49.462;11.000;2022-09-20T02:59:09;12.30;99.90
37289;DHT22;23174;49.462;11.000;2022-09-20T03:01:34;12.30;99.90
37289;DHT22;23174;49.462;11.000;2022-09-20T03:15:14;12.30;99.90
37289;DHT22;23174;49.462;11.000;2022-09-20T03:36:33;12.50;99.90
37289;DHT22;23174;49.462;11.000;2022-09-20T03:43:59;12.20;99.90
37289;DHT22;23174;49.462;11.000;2022-09-20T03:51:00;12.10;99.90
37289;DHT22;23174;49.462;11.000;2022-09-20T03:56:18;12.20;99.90
37289;DHT22;23174;49.462;11.000;2022-09-20T04:05:16;12.20;99.90
37289;DHT22;23174;49.462;11.000;2022-09-20T04:14:33;11.80;99.90
37289;DHT22;23174;49.462;11.000;2022-09-20T04:18:54;11.90;99.90
37289;DHT22;23174;49.462;11.000;2022-09-20T04:21:07;12.00;99.90
37289;DHT22;23174;49.462;11.000;2022-09-20T04:23:29;11.80;99.90
37289;DHT22;23174;49.462;11.000;2022-09-20T04:25:41;11.90;99.90
37289;DHT22;23174;49.462;11.000;2022-09-20T04:27:50;11.70;99.90
37289;DHT22;23174;49.462;11.000;2022-09-20T04:34:29;11.80;99.90
37289;DHT22;23174;49.462;11.000;2022-09-20T04:37:01;11.60;99.90
37289;DHT22;23174;49.462;11.000;2022-09-20T04:41:32;11.50;99.90
37289;DHT22;23174;49.462;11.000;2022-09-20T04:58:38;11.60;99.90
37289;DHT22;23174;49.462;11.000;2022-09-20T05:10:43;11.40;99.90
37289;DHT22;23174;49.462;11.000;2022-09-20T05:13:00;11.40;99.90
37289;DHT22;23174;49.462;11.000;2022-09-20T05:20:00;11.50;99.90
37289;DHT22;23174;49.462;11.000;2022-09-20T05:24:43;11.40;99.90
37289;DHT22;23174;49.462;11.000;2022-09-20T05:47:49;11.40;99.90
37289;DHT22;23174;49.462;11.000;2022-09-20T05:52:32;11.60;99.90
37289;DHT22;23174;49.462;11.000;2022-09-20T05:57:26;11.50;99.90
37289;DHT22;23174;49.462;11.000;2022-09-20T05:59:57;11.60;99.90
37289;DHT22;23174;49.462;11.000;2022-09-20T06:02:12;11.60;99.90
37289;DHT22;23174;49.462;11.000;2022-09-20T06:04:28;11.50;99.90
37289;DHT22;23174;49.462;11.000;2022-09-20T06:07:05;11.40;99.90
37289;DHT22;23174;49.462;11.000;2022-09-20T06:09:11;11.40;99.90
37289;DHT22;23174;49.462;11.000;2022-09-20T06:16:06;11.60;99.90
37289;DHT22;23174;49.462;11.000;2022-09-20T06:18:21;11.40;99.90
37289;DHT22;23174;49.462;11.000;2022-09-20T06:20:32;11.50;99.90
37289;DHT22;23174;49.462;11.000;2022-09-20T06:22:44;11.50;99.90
37289;DHT22;23174;49.462;11.000;2022-09-20T06:27:16;11.70;99.90
37289;DHT22;23174;49.462;11.000;2022-09-20T06:29:26;11.70;99.90
37289;DHT22;23174;49.462;11.000;2022-09-20T06:31:28;11.80;99.90
37289;DHT22;23174;49.462;11.000;2022-09-20T06:33:29;11.90;99.90
37289;DHT22;23174;49.462;11.000;2022-09-20T06:35:36;11.80;99.90
37289;DHT22;23174;49.462;11.000;2022-09-20T06:38:37;12.10;99.90
37289;DHT22;23174;49.462;11.000;2022-09-20T06:40:43;12.00;99.90
37289;DHT22;23174;49.462;11.000;2022-09-20T06:43:03;12.00;99.90
37289;DHT22;23174;49.462;11.000;2022-09-20T06:45:04;12.10;99.90
37289;DHT22;23174;49.462;11.000;2022-09-20T06:47:08;12.10;99.90
37289;DHT22;23174;49.462;11.000;2022-09-20T06:49:09;12.20;99.90
37289;DHT22;23174;49.462;11.000;2022-09-20T06:51:09;12.20;99.90
37289;DHT22;23174;49.462;11.000;2022-09-20T06:53:18;12.10;99.90
37289;DHT22;23174;49.462;11.000;2022-09-20T06:55:27;12.10;99.90
37289;DHT22;23174;49.462;11.000;2022-09-20T06:57:33;12.00;99.90
37289;DHT22;23174;49.462;11.000;2022-09-20T06:59:34;12.00;99.90
37289;DHT22;23174;49.462;11.000;2022-09-20T07:01:35;12.20;99.90
37289;DHT22;23174;49.462;11.000;2022-09-20T07:03:36;12.10;99.90
37289;DHT22;23174;49.462;11.000;2022-09-20T07:05:37;12.10;99.90
37289;DHT22;23174;49.462;11.000;2022-09-20T07:07:38;12.10;99.90
37289;DHT22;23174;49.462;11.000;2022-09-20T07:09:38;12.20;99.90
37289;DHT22;23174;49.462;11.000;2022-09-20T07:11:39;12.20;99.90
37289;DHT22;23174;49.462;11.000;2022-09-20T07:13:40;12.20;99.90
37289;DHT22;23174;49.462;11.000;2022-09-20T07:15:40;12.30;99.90
37289;DHT22;23174;49.462;11.000;2022-09-20T07:17:44;12.30;99.90
37289;DHT22;23174;49.462;11.000;2022-09-20T07:19:44;12.20;99.90
37289;DHT22;23174;49.462;11.000;2022-09-20T07:21:45;12.20;99.90
37289;DHT22;23174;49.462;11.000;2022-09-20T07:23:46;12.30;99.90
37289;DHT22;23174;49.462;11.000;2022-09-20T07:25:50;12.20;99.90
37289;DHT22;23174;49.462;11.000;2022-09-20T07:27:51;12.20;99.90
37289;DHT22;23174;49.462;11.000;2022-09-20T07:29:52;12.30;99.90
37289;DHT22;23174;49.462;11.000;2022-09-20T07:31:53;12.40;99.90
37289;DHT22;23174;49.462;11.000;2022-09-20T07:33:55;12.50;99.90
37289;DHT22;23174;49.462;11.000;2022-09-20T07:35:55;12.40;99.90
37289;DHT22;23174;49.462;11.000;2022-09-20T07:37:56;12.50;99.90
37289;DHT22;23174;49.462;11.000;2022-09-20T07:39:57;12.50;99.90
37289;DHT22;23174;49.462;11.000;2022-09-20T07:41:57;12.50;99.90
37289;DHT22;23174;49.462;11.000;2022-09-20T07:43:58;12.60;99.90
37289;DHT22;23174;49.462;11.000;2022-09-20T07:46:19;12.50;99.90
37289;DHT22;23174;49.462;11.000;2022-09-20T07:48:24;12.50;99.90
37289;DHT22;23174;49.462;11.000;2022-09-20T07:50:27;12.70;99.90
37289;DHT22;23174;49.462;11.000;2022-09-20T07:52:28;12.70;99.90
37289;DHT22;23174;49.462;11.000;2022-09-20T07:54:28;12.60;99.90
37289;DHT22;23174;49.462;11.000;2022-09-20T07:56:29;12.60;99.90
37289;DHT22;23174;49.462;11.000;2022-09-20T07:58:32;12.60;99.90
37289;DHT22;23174;49.462;11.000;2022-09-20T08:00:33;12.90;99.90
37289;DHT22;23174;49.462;11.000;2022-09-20T08:02:34;12.90;99.90
37289;DHT22;23174;49.462;11.000;2022-09-20T08:04:34;12.90;99.90
37289;DHT22;23174;49.462;11.000;2022-09-20T08:06:39;13.00;99.90
37289;DHT22;23174;49.462;11.000;2022-09-20T08:08:40;13.00;99.90
37289;DHT22;23174;49.462;11.000;2022-09-20T08:10:41;13.10;99.90
37289;DHT22;23174;49.462;11.000;2022-09-20T08:12:42;13.20;99.90
37289;DHT22;23174;49.462;11.000;2022-09-20T08:14:43;13.10;99.90
37289;DHT22;23174;49.462;11.000;2022-09-20T08:16:46;13.20;99.90
37289;DHT22;23174;49.462;11.000;2022-09-20T08:18:52;13.10;99.90
37289;DHT22;23174;49.462;11.000;2022-09-20T08:20:55;13.20;99.90
37289;DHT22;23174;49.462;11.000;2022-09-20T08:22:57;13.20;99.90
37289;DHT22;23174;49.462;11.000;2022-09-20T08:24:58;13.20;99.90
37289;DHT22;23174;49.462;11.000;2022-09-20T08:26:59;13.20;99.90
37289;DHT22;23174;49.462;11.000;2022-09-20T08:28:59;13.20;99.90
37289;DHT22;23174;49.462;11.000;2022-09-20T08:31:02;13.20;99.90
37289;DHT22;23174;49.462;11.000;2022-09-20T08:33:03;13.30;99.90
37289;DHT22;23174;49.462;11.000;2022-09-20T08:35:04;13.20;99.90
37289;DHT22;23174;49.462;11.000;2022-09-20T08:37:05;13.10;99.90
37289;DHT22;23174;49.462;11.000;2022-09-20T08:39:06;13.10;99.90
37289;DHT22;23174;49.462;11.000;2022-09-20T08:41:20;13.10;99.90
37289;DHT22;23174;49.462;11.000;2022-09-20T08:43:23;13.20;99.90
37289;DHT22;23174;49.462;11.000;2022-09-20T08:45:27;13.20;99.90
37289;DHT22;23174;49.462;11.000;2022-09-20T08:47:34;13.30;99.90
37289;DHT22;23174;49.462;11.000;2022-09-20T08:49:36;13.20;99.90
37289;DHT22;23174;49.462;11.000;2022-09-20T08:51:39;13.30;99.90
37289;DHT22;23174;49.462;11.000;2022-09-20T08:53:46;13.30;99.90
37289;DHT22;23174;49.462;11.000;2022-09-20T08:55:47;13.40;99.90
37289;DHT22;23174;49.462;11.000;2022-09-20T08:57:53;13.40;99.90
37289;DHT22;23174;49.462;11.000;2022-09-20T08:59:53;13.40;99.90
37289;DHT22;23174;49.462;11.000;2022-09-20T09:01:54;13.20;99.90
37289;DHT22;23174;49.462;11.000;2022-09-20T09:06:12;13.30;99.90
37289;DHT22;23174;49.462;11.000;2022-09-20T09:08:28;13.30;99.90
37289;DHT22;23174;49.462;11.000;2022-09-20T09:10:37;13.30;99.90
37289;DHT22;23174;49.462;11.000;2022-09-20T09:12:42;13.30;99.90
37289;DHT22;23174;49.462;11.000;2022-09-20T09:14:45;13.30;99.90
37289;DHT22;23174;49.462;11.000;2022-09-20T09:16:50;13.40;99.90
37289;DHT22;23174;49.462;11.000;2022-09-20T09:18:52;13.50;99.90
37289;DHT22;23174;49.462;11.000;2022-09-20T09:20:53;13.40;99.90
37289;DHT22;23174;49.462;11.000;2022-09-20T09:23:10;13.70;99.90
37289;DHT22;23174;49.462;11.000;2022-09-20T09:25:26;13.70;99.90
37289;DHT22;23174;49.462;11.000;2022-09-20T09:27:31;13.80;99.90
37289;DHT22;23174;49.462;11.000;2022-09-20T09:29:33;13.70;99.90
37289;DHT22;23174;49.462;11.000;2022-09-20T09:31:34;13.60;99.90
37289;DHT22;23174;49.462;11.000;2022-09-20T09:33:34;13.60;99.90
37289;DHT22;23174;49.462;11.000;2022-09-20T09:35:43;13.50;99.90
37289;DHT22;23174;49.462;11.000;2022-09-20T09:37:53;13.50;99.90
37289;DHT22;23174;49.462;11.000;2022-09-20T09:40:14;13.50;99.90
37289;DHT22;23174;49.462;11.000;2022-09-20T09:42:20;13.60;99.90
37289;DHT22;23174;49.462;11.000;2022-09-20T09:46:24;13.40;99.90
37289;DHT22;23174;49.462;11.000;2022-09-20T09:48:28;13.30;99.90
37289;DHT22;23174;49.462;11.000;2022-09-20T09:50:32;13.30;99.90
37289;DHT22;23174;49.462;11.000;2022-09-20T09:52:33;13.30;99.90
37289;DHT22;23174;49.462;11.000;2022-09-20T09:54:38;13.40;99.90
37289;DHT22;23174;49.462;11.000;2022-09-20T09:56:43;13.50;99.90
37289;DHT22;23174;49.462;11.000;2022-09-20T09:59:21;13.50;99.90
37289;DHT22;23174;49.462;11.000;2022-09-20T10:01:41;13.60;99.90
37289;DHT22;23174;49.462;11.000;2022-09-20T10:03:56;13.80;99.90
37289;DHT22;23174;49.462;11.000;2022-09-20T10:06:25;13.90;99.90
37289;DHT22;23174;49.462;11.000;2022-09-20T10:13:13;13.60;99.90
37289;DHT22;23174;49.462;11.000;2022-09-20T10:18:07;13.30;99.90
37289;DHT22;23174;49.462;11.000;2022-09-20T10:20:50;13.10;99.90
37289;DHT22;23174;49.462;11.000;2022-09-20T10:30:29;13.60;99.90
37289;DHT22;23174;49.462;11.000;2022-09-20T10:32:59;13.70;99.90
37289;DHT22;23174;49.462;11.000;2022-09-20T10:39:40;13.50;99.90
37289;DHT22;23174;49.462;11.000;2022-09-20T10:41:54;13.50;99.90
37289;DHT22;23174;49.462;11.000;2022-09-20T10:46:58;13.80;99.90
37289;DHT22;23174;49.462;11.000;2022-09-20T10:57:00;13.70;99.90
37289;DHT22;23174;49.462;11.000;2022-09-20T11:01:44;13.90;99.90
37289;DHT22;23174;49.462;11.000;2022-09-20T11:06:47;13.90;99.90
37289;DHT22;23174;49.462;11.000;2022-09-20T11:08:53;14.20;99.90
37289;DHT22;23174;49.462;11.000;2022-09-20T11:11:04;14.20;99.90
37289;DHT22;23174;49.462;11.000;2022-09-20T11:15:37;14.20;99.90
37289;DHT22;23174;49.462;11.000;2022-09-20T11:17:43;14.30;99.90
37289;DHT22;23174;49.462;11.000;2022-09-20T11:22:06;14.50;99.90
37289;DHT22;23174;49.462;11.000;2022-09-20T11:24:32;14.40;99.90
37289;DHT22;23174;49.462;11.000;2022-09-20T11:26:38;14.40;99.90
37289;DHT22;23174;49.462;11.000;2022-09-20T11:28:51;14.50;99.90
37289;DHT22;23174;49.462;11.000;2022-09-20T11:31:00;14.40;99.90
37289;DHT22;23174;49.462;11.000;2022-09-20T11:33:16;14.40;99.90
37289;DHT22;23174;49.462;11.000;2022-09-20T11:35:32;14.40;99.90
37289;DHT22;23174;49.462;11.000;2022-09-20T11:37:37;14.40;99.90
37289;DHT22;23174;49.462;11.000;2022-09-20T11:39:44;14.60;99.90
37289;DHT22;23174;49.462;11.000;2022-09-20T11:41:48;14.70;99.90
37289;DHT22;23174;49.462;11.000;2022-09-20T11:43:51;14.70;99.90
37289;DHT22;23174;49.462;11.000;2022-09-20T11:46:03;14.70;99.90
37289;DHT22;23174;49.462;11.000;2022-09-20T11:53:35;14.80;99.90
37289;DHT22;23174;49.462;11.000;2022-09-20T11:55:47;15.00;99.90
37289;DHT22;23174;49.462;11.000;2022-09-20T11:58:08;14.90;99.90
37289;DHT22;23174;49.462;11.000;2022-09-20T12:00:11;14.80;99.90
37289;DHT22;23174;49.462;11.000;2022-09-20T12:04:27;15.00;99.90
37289;DHT22;23174;49.462;11.000;2022-09-20T12:06:30;15.00;99.90
37289;DHT22;23174;49.462;11.000;2022-09-20T12:08:35;15.00;99.90
37289;DHT22;23174;49.462;11.000;2022-09-20T12:10:38;15.00;99.90
37289;DHT22;23174;49.462;11.000;2022-09-20T12:12:42;15.00;99.90
37289;DHT22;23174;49.462;11.000;2022-09-20T12:14:53;14.90;99.90
37289;DHT22;23174;49.462;11.000;2022-09-20T12:16:54;14.70;99.90
37289;DHT22;23174;49.462;11.000;2022-09-20T12:19:00;14.60;99.90
37289;DHT22;23174;49.462;11.000;2022-09-20T12:21:12;14.60;99.90
37289;DHT22;23174;49.462;11.000;2022-09-20T12:25:39;14.30;99.90
37289;DHT22;23174;49.462;11.000;2022-09-20T12:31:54;14.30;99.90
37289;DHT22;23174;49.462;11.000;2022-09-20T12:34:40;14.50;99.90
37289;DHT22;23174;49.462;11.000;2022-09-20T12:36:16;14.70;99.90
37289;DHT22;23174;49.462;11.000;2022-09-20T12:40:20;14.90;99.90
37289;DHT22;23174;49.462;11.000;2022-09-20T12:42:30;14.90;99.90
37289;DHT22;23174;49.462;11.000;2022-09-20T12:45:05;15.10;99.90
37289;DHT22;23174;49.462;11.000;2022-09-20T12:47:22;15.20;99.90
37289;DHT22;23174;49.462;11.000;2022-09-20T12:51:54;15.00;99.90
37289;DHT22;23174;49.462;11.000;2022-09-20T12:54:13;15.00;99.90
37289;DHT22;23174;49.462;11.000;2022-09-20T12:56:19;15.00;99.90
37289;DHT22;23174;49.462;11.000;2022-09-20T12:58:30;15.00;99.90
37289;DHT22;23174;49.462;11.000;2022-09-20T13:02:41;15.10;99.90
37289;DHT22;23174;49.462;11.000;2022-09-20T13:04:52;15.10;99.90
37289;DHT22;23174;49.462;11.000;2022-09-20T13:07:33;14.90;99.90
37289;DHT22;23174;49.462;11.000;2022-09-20T13:09:34;14.80;99.90
37289;DHT22;23174;49.462;11.000;2022-09-20T13:11:39;14.90;99.90
37289;DHT22;23174;49.462;11.000;2022-09-20T13:14:17;14.90;99.90
37289;DHT22;23174;49.462;11.000;2022-09-20T13:16:25;15.00;99.90
37289;DHT22;23174;49.462;11.000;2022-09-20T13:18:27;15.00;99.90
37289;DHT22;23174;49.462;11.000;2022-09-20T13:20:30;15.10;99.90
37289;DHT22;23174;49.462;11.000;2022-09-20T13:22:37;15.20;99.90
37289;DHT22;23174;49.462;11.000;2022-09-20T13:24:45;15.20;99.90
37289;DHT22;23174;49.462;11.000;2022-09-20T13:26:48;15.10;99.90
37289;DHT22;23174;49.462;11.000;2022-09-20T13:28:53;15.00;99.90
37289;DHT22;23174;49.462;11.000;2022-09-20T13:33:23;14.90;99.90
37289;DHT22;23174;49.462;11.000;2022-09-20T13:35:26;15.00;99.90
37289;DHT22;23174;49.462;11.000;2022-09-20T13:37:32;15.00;99.90
37289;DHT22;23174;49.462;11.000;2022-09-20T13:39:34;14.90;99.90
37289;DHT22;23174;49.462;11.000;2022-09-20T13:41:36;15.00;99.90
37289;DHT22;23174;49.462;11.000;2022-09-20T13:43:42;15.10;99.90
37289;DHT22;23174;49.462;11.000;2022-09-20T13:45:43;15.20;99.90
37289;DHT22;23174;49.462;11.000;2022-09-20T13:47:52;15.10;99.90
37289;DHT22;23174;49.462;11.000;2022-09-20T13:50:27;15.20;99.90
37289;DHT22;23174;49.462;11.000;2022-09-20T13:52:30;15.40;99.90
37289;DHT22;23174;49.462;11.000;2022-09-20T13:54:32;15.60;99.90
37289;DHT22;23174;49.462;11.000;2022-09-20T13:56:32;15.80;99.90
37289;DHT22;23174;49.462;11.000;2022-09-20T13:58:34;16.00;99.90
37289;DHT22;23174;49.462;11.000;2022-09-20T14:00:36;15.90;99.90
37289;DHT22;23174;49.462;11.000;2022-09-20T14:02:47;15.90;99.90
37289;DHT22;23174;49.462;11.000;2022-09-20T14:04:50;16.00;99.90
37289;DHT22;23174;49.462;11.000;2022-09-20T14:06:56;15.90;99.90
37289;DHT22;23174;49.462;11.000;2022-09-20T14:09:02;15.70;99.90
37289;DHT22;23174;49.462;11.000;2022-09-20T14:13:10;15.60;99.90
37289;DHT22;23174;49.462;11.000;2022-09-20T14:15:14;15.60;99.90
37289;DHT22;23174;49.462;11.000;2022-09-20T14:17:17;15.60;99.90
37289;DHT22;23174;49.462;11.000;2022-09-20T14:19:21;15.60;99.90
37289;DHT22;23174;49.462;11.000;2022-09-20T14:21:24;15.60;99.90
37289;DHT22;23174;49.462;11.000;2022-09-20T14:23:28;15.50;99.90
37289;DHT22;23174;49.462;11.000;2022-09-20T14:25:29;15.60;99.90
37289;DHT22;23174;49.462;11.000;2022-09-20T14:27:29;15.60;99.90
37289;DHT22;23174;49.462;11.000;2022-09-20T14:31:34;15.60;99.90
37289;DHT22;23174;49.462;11.000;2022-09-20T14:33:40;15.70;99.90
37289;DHT22;23174;49.462;11.000;2022-09-20T14:35:49;15.70;99.90
37289;DHT22;23174;49.462;11.000;2022-09-20T14:37:58;15.80;99.90
37289;DHT22;23174;49.462;11.000;2022-09-20T14:40:04;15.80;99.90
37289;DHT22;23174;49.462;11.000;2022-09-20T14:44:32;16.00;99.90
37289;DHT22;23174;49.462;11.000;2022-09-20T14:46:35;16.10;99.90
37289;DHT22;23174;49.462;11.000;2022-09-20T14:48:38;16.00;99.90
37289;DHT22;23174;49.462;11.000;2022-09-20T14:50:43;16.10;99.90
37289;DHT22;23174;49.462;11.000;2022-09-20T14:52:44;16.00;99.90
37289;DHT22;23174;49.462;11.000;2022-09-20T14:57:09;16.00;99.90
37289;DHT22;23174;49.462;11.000;2022-09-20T15:01:22;15.90;99.90
37289;DHT22;23174;49.462;11.000;2022-09-20T15:03:29;15.90;99.90
37289;DHT22;23174;49.462;11.000;2022-09-20T15:05:30;15.90;99.90
37289;DHT22;23174;49.462;11.000;2022-09-20T15:07:31;15.90;99.90
37289;DHT22;23174;49.462;11.000;2022-09-20T15:09:32;15.80;99.90
37289;DHT22;23174;49.462;11.000;2022-09-20T15:11:34;15.80;99.90
37289;DHT22;23174;49.462;11.000;2022-09-20T15:13:35;15.90;99.90
37289;DHT22;23174;49.462;11.000;2022-09-20T15:15:35;15.80;99.90
37289;DHT22;23174;49.462;11.000;2022-09-20T15:17:41;15.80;99.90
37289;DHT22;23174;49.462;11.000;2022-09-20T15:19:42;15.80;99.90
37289;DHT22;23174;49.462;11.000;2022-09-20T15:21:42;15.90;99.90
37289;DHT22;23174;49.462;11.000;2022-09-20T15:23:43;15.80;99.90
37289;DHT22;23174;49.462;11.000;2022-09-20T15:25:44;15.90;99.90
37289;DHT22;23174;49.462;11.000;2022-09-20T15:27:45;15.90;99.90
37289;DHT22;23174;49.462;11.000;2022-09-20T15:29:46;15.90;99.90
37289;DHT22;23174;49.462;11.000;2022-09-20T15:31:47;15.90;99.90
37289;DHT22;23174;49.462;11.000;2022-09-20T15:33:48;16.00;99.90
37289;DHT22;23174;49.462;11.000;2022-09-20T15:35:48;16.00;99.90
37289;DHT22;23174;49.462;11.000;2022-09-20T15:37:49;15.90;99.90
37289;DHT22;23174;49.462;11.000;2022-09-20T15:39:50;15.90;99.90
37289;DHT22;23174;49.462;11.000;2022-09-20T15:41:52;15.80;99.90
37289;DHT22;23174;49.462;11.000;2022-09-20T15:43:52;15.80;99.90
37289;DHT22;23174;49.462;11.000;2022-09-20T15:46:05;15.80;99.90
37289;DHT22;23174;49.462;11.000;2022-09-20T15:48:19;15.80;99.90
37289;DHT22;23174;49.462;11.000;2022-09-20T15:50:21;15.90;99.90
37289;DHT22;23174;49.462;11.000;2022-09-20T15:52:22;15.90;99.90
37289;DHT22;23174;49.462;11.000;2022-09-20T15:54:24;15.80;99.90
37289;DHT22;23174;49.462;11.000;2022-09-20T15:56:34;15.80;99.90
37289;DHT22;23174;49.462;11.000;2022-09-20T15:58:35;15.70;99.90
37289;DHT22;23174;49.462;11.000;2022-09-20T16:00:36;15.70;99.90
37289;DHT22;23174;49.462;11.000;2022-09-20T16:02:37;15.70;99.90
37289;DHT22;23174;49.462;11.000;2022-09-20T16:04:38;15.70;99.90
37289;DHT22;23174;49.462;11.000;2022-09-20T16:06:40;15.70;99.90
37289;DHT22;23174;49.462;11.000;2022-09-20T16:08:42;15.60;99.90
37289;DHT22;23174;49.462;11.000;2022-09-20T16:10:43;15.50;99.90
37289;DHT22;23174;49.462;11.000;2022-09-20T16:12:44;15.50;99.90
37289;DHT22;23174;49.462;11.000;2022-09-20T16:14:44;15.40;99.90
37289;DHT22;23174;49.462;11.000;2022-09-20T16:16:45;15.30;99.90
37289;DHT22;23174;49.462;11.000;2022-09-20T16:18:45;15.40;99.90
37289;DHT22;23174;49.462;11.000;2022-09-20T16:21:06;15.30;99.90
37289;DHT22;23174;49.462;11.000;2022-09-20T16:23:07;15.40;99.90
37289;DHT22;23174;49.462;11.000;2022-09-20T16:25:08;15.50;99.90
37289;DHT22;23174;49.462;11.000;2022-09-20T16:27:08;15.50;99.90
37289;DHT22;23174;49.462;11.000;2022-09-20T16:29:09;15.40;99.90
37289;DHT22;23174;49.462;11.000;2022-09-20T16:31:44;15.20;99.90
37289;DHT22;23174;49.462;11.000;2022-09-20T16:33:46;15.00;99.90
37289;DHT22;23174;49.462;11.000;2022-09-20T16:35:47;14.90;99.90
37289;DHT22;23174;49.462;11.000;2022-09-20T16:37:48;14.80;99.90
37289;DHT22;23174;49.462;11.000;2022-09-20T16:39:49;14.60;99.90
37289;DHT22;23174;49.462;11.000;2022-09-20T16:41:49;14.50;99.90
37289;DHT22;23174;49.462;11.000;2022-09-20T16:43:52;14.30;99.90
37289;DHT22;23174;49.462;11.000;2022-09-20T16:45:59;14.20;99.90
37289;DHT22;23174;49.462;11.000;2022-09-20T16:48:00;14.10;99.90
37289;DHT22;23174;49.462;11.000;2022-09-20T16:50:03;14.10;99.90
37289;DHT22;23174;49.462;11.000;2022-09-20T16:52:05;14.10;99.90
37289;DHT22;23174;49.462;11.000;2022-09-20T16:54:08;14.10;99.90
37289;DHT22;23174;49.462;11.000;2022-09-20T16:56:39;14.20;99.90
37289;DHT22;23174;49.462;11.000;2022-09-20T16:58:40;14.10;99.90
37289;DHT22;23174;49.462;11.000;2022-09-20T17:00:42;14.30;99.90
37289;DHT22;23174;49.462;11.000;2022-09-20T17:02:43;14.30;99.90
37289;DHT22;23174;49.462;11.000;2022-09-20T17:04:44;14.20;99.90
37289;DHT22;23174;49.462;11.000;2022-09-20T17:06:45;14.10;99.90
37289;DHT22;23174;49.462;11.000;2022-09-20T17:08:51;14.10;99.90
37289;DHT22;23174;49.462;11.000;2022-09-20T17:10:51;14.20;99.90
37289;DHT22;23174;49.462;11.000;2022-09-20T17:12:54;14.20;99.90
37289;DHT22;23174;49.462;11.000;2022-09-20T17:14:57;14.30;99.90
37289;DHT22;23174;49.462;11.000;2022-09-20T17:16:57;14.40;99.90
37289;DHT22;23174;49.462;11.000;2022-09-20T17:19:03;14.10;99.90
37289;DHT22;23174;49.462;11.000;2022-09-20T17:21:15;14.00;99.90
37289;DHT22;23174;49.462;11.000;2022-09-20T17:23:16;13.90;99.90
37289;DHT22;23174;49.462;11.000;2022-09-20T17:25:17;13.80;99.90
37289;DHT22;23174;49.462;11.000;2022-09-20T17:27:17;13.80;99.90
37289;DHT22;23174;49.462;11.000;2022-09-20T17:29:19;13.80;99.90
37289;DHT22;23174;49.462;11.000;2022-09-20T17:31:24;13.80;99.90
37289;DHT22;23174;49.462;11.000;2022-09-20T17:33:28;13.80;99.90
37289;DHT22;23174;49.462;11.000;2022-09-20T17:35:31;13.80;99.90